sensor_id;sensor_type;location;lat;lon;timestamp;temperature;humidity
66422;DHT22;53228;51.380;0.098;2023-11-25T00:01:03;-0.20;99.90
66422;DHT22;53228;51.380;0.098;2023-11-25T00:03:32;-0.20;99.90
66422;DHT22;53228;51.380;0.098;2023-11-25T00:06:00;-0.30;99.90
66422;DHT22;53228;51.380;0.098;2023-11-25T00:08:27;-0.20;99.90
66422;DHT22;53228;51.380;0.098;2023-11-25T00:10:55;-0.30;99.90
66422;DHT22;53228;51.380;0.098;2023-11-25T00:13:23;-0.10;99.90
66422;DHT22;53228;51.380;0.098;2023-11-25T00:15:52;-0.20;99.90
66422;DHT22;53228;51.380;0.098;2023-11-25T00:18:20;-0.20;99.90
66422;DHT22;53228;51.380;0.098;2023-11-25T00:20:48;-0.30;99.90
66422;DHT22;53228;51.380;0.098;2023-11-25T00:23:15;-0.30;99.90
66422;DHT22;53228;51.380;0.098;2023-11-25T00:25:45;-0.20;99.90
66422;DHT22;53228;51.380;0.098;2023-11-25T00:28:13;-0.20;99.90
66422;DHT22;53228;51.380;0.098;2023-11-25T00:30:41;-0.20;99.90
66422;DHT22;53228;51.380;0.098;2023-11-25T00:33:08;-0.20;99.90
66422;DHT22;53228;51.380;0.098;2023-11-25T00:35:36;-0.30;99.90
66422;DHT22;53228;51.380;0.098;2023-11-25T00:38:04;-0.30;99.90
66422;DHT22;53228;51.380;0.098;2023-11-25T00:40:35;-0.30;99.90
66422;DHT22;53228;51.380;0.098;2023-11-25T00:43:04;-0.50;99.90
66422;DHT22;53228;51.380;0.098;2023-11-25T00:45:31;-0.50;99.90
66422;DHT22;53228;51.380;0.098;2023-11-25T00:47:59;-0.50;99.90
66422;DHT22;53228;51.380;0.098;2023-11-25T00:50:27;-0.50;99.90
66422;DHT22;53228;51.380;0.098;2023-11-25T00:52:55;-0.50;99.90
66422;DHT22;53228;51.380;0.098;2023-11-25T00:55:23;-0.60;99.90
66422;DHT22;53228;51.380;0.098;2023-11-25T00:57:50;-0.50;99.90
66422;DHT22;53228;51.380;0.098;2023-11-25T01:00:18;-0.50;99.90
66422;DHT22;53228;51.380;0.098;2023-11-25T01:02:50;-0.50;99.90
66422;DHT22;53228;51.380;0.098;2023-11-25T02:02:38;-0.70;99.90
66422;DHT22;53228;51.380;0.098;2023-11-25T02:10:07;-0.80;99.90
66422;DHT22;53228;51.380;0.098;2023-11-25T02:25:06;-0.80;99.90
66422;DHT22;53228;51.380;0.098;2023-11-25T02:27:34;-0.90;99.90
66422;DHT22;53228;51.380;0.098;2023-11-25T02:30:02;-0.90;99.90
66422;DHT22;53228;51.380;0.098;2023-11-25T02:35:01;-0.90;99.90
66422;DHT22;53228;51.380;0.098;2023-11-25T02:37:29;-1.10;99.90
66422;DHT22;53228;51.380;0.098;2023-11-25T02:39:57;-1.10;99.90
66422;DHT22;53228;51.380;0.098;2023-11-25T03:34:25;-1.70;99.90
66422;DHT22;53228;51.380;0.098;2023-11-25T03:36:53;-2.90;99.90
66422;DHT22;53228;51.380;0.098;2023-11-25T03:39:20;-1.20;99.90
66422;DHT22;53228;51.380;0.098;2023-11-25T03:41:49;-2.50;99.90
66422;DHT22;53228;51.380;0.098;2023-11-25T03:44:16;-1.70;99.90
66422;DHT22;53228;51.380;0.098;2023-11-25T03:49:13;-1.20;99.90
66422;DHT22;53228;51.380;0.098;2023-11-25T03:51:41;-1.30;99.90
66422;DHT22;53228;51.380;0.098;2023-11-25T03:54:08;-1.40;99.90
66422;DHT22;53228;51.380;0.098;2023-11-25T03:56:36;-1.70;99.90
66422;DHT22;53228;51.380;0.098;2023-11-25T03:59:04;-1.30;99.90
66422;DHT22;53228;51.380;0.098;2023-11-25T04:01:31;-1.80;99.90
66422;DHT22;53228;51.380;0.098;2023-11-25T04:06:30;-1.90;99.90
66422;DHT22;53228;51.380;0.098;2023-11-25T04:08:57;-1.80;99.90
66422;DHT22;53228;51.380;0.098;2023-11-25T04:11:25;-1.90;99.90
66422;DHT22;53228;51.380;0.098;2023-11-25T04:13:53;-1.90;99.90
66422;DHT22;53228;51.380;0.098;2023-11-25T04:16:25;-1.90;99.90
66422;DHT22;53228;51.380;0.098;2023-11-25T04:18:53;-1.90;99.90
66422;DHT22;53228;51.380;0.098;2023-11-25T04:21:21;-1.90;99.90
66422;DHT22;53228;51.380;0.098;2023-11-25T04:23:51;-1.90;99.90
66422;DHT22;53228;51.380;0.098;2023-11-25T04:26:23;-2.00;99.90
66422;DHT22;53228;51.380;0.098;2023-11-25T04:28:52;-1.90;99.90
66422;DHT22;53228;51.380;0.098;2023-11-25T04:33:48;-2.60;99.90
66422;DHT22;53228;51.380;0.098;2023-11-25T04:36:16;-1.80;99.90
66422;DHT22;53228;51.380;0.098;2023-11-25T04:38:46;-1.90;99.90
66422;DHT22;53228;51.380;0.098;2023-11-25T04:41:14;-1.90;99.90
66422;DHT22;53228;51.380;0.098;2023-11-25T04:43:41;-2.00;99.90
66422;DHT22;53228;51.380;0.098;2023-11-25T04:46:10;-1.90;99.90
66422;DHT22;53228;51.380;0.098;2023-11-25T04:48:38;-1.80;99.90
66422;DHT22;53228;51.380;0.098;2023-11-25T04:51:06;-1.90;99.90
66422;DHT22;53228;51.380;0.098;2023-11-25T04:53:34;-2.00;99.90
66422;DHT22;53228;51.380;0.098;2023-11-25T04:56:02;-2.00;99.90
66422;DHT22;53228;51.380;0.098;2023-11-25T04:58:31;-2.00;99.90
66422;DHT22;53228;51.380;0.098;2023-11-25T05:00:59;-2.00;99.90
66422;DHT22;53228;51.380;0.098;2023-11-25T05:03:27;-2.00;99.90
66422;DHT22;53228;51.380;0.098;2023-11-25T05:05:54;-1.90;99.90
66422;DHT22;53228;51.380;0.098;2023-11-25T05:08:22;-1.90;99.90
66422;DHT22;53228;51.380;0.098;2023-11-25T05:10:50;-1.90;99.90
66422;DHT22;53228;51.380;0.098;2023-11-25T05:13:18;-1.80;99.90
66422;DHT22;53228;51.380;0.098;2023-11-25T05:15:45;-1.80;99.90
66422;DHT22;53228;51.380;0.098;2023-11-25T05:18:13;-1.80;99.90
66422;DHT22;53228;51.380;0.098;2023-11-25T05:20:41;-1.90;99.90
66422;DHT22;53228;51.380;0.098;2023-11-25T05:23:08;-1.90;99.90
66422;DHT22;53228;51.380;0.098;2023-11-25T05:25:36;-1.90;99.90
66422;DHT22;53228;51.380;0.098;2023-11-25T05:28:04;-1.90;99.90
66422;DHT22;53228;51.380;0.098;2023-11-25T05:30:31;-1.90;99.90
66422;DHT22;53228;51.380;0.098;2023-11-25T05:32:59;-1.90;99.90
66422;DHT22;53228;51.380;0.098;2023-11-25T05:35:27;-1.80;99.90
66422;DHT22;53228;51.380;0.098;2023-11-25T05:37:55;-1.80;99.90
66422;DHT22;53228;51.380;0.098;2023-11-25T05:40:22;-1.80;99.90
66422;DHT22;53228;51.380;0.098;2023-11-25T05:42:50;-1.70;99.90
66422;DHT22;53228;51.380;0.098;2023-11-25T05:45:21;-1.60;99.90
66422;DHT22;53228;51.380;0.098;2023-11-25T05:47:54;-1.60;99.90
66422;DHT22;53228;51.380;0.098;2023-11-25T05:50:22;-1.50;99.90
66422;DHT22;53228;51.380;0.098;2023-11-25T05:52:50;-1.40;99.90
66422;DHT22;53228;51.380;0.098;2023-11-25T05:55:18;-1.30;99.90
66422;DHT22;53228;51.380;0.098;2023-11-25T05:57:47;-1.30;99.90
66422;DHT22;53228;51.380;0.098;2023-11-25T06:00:19;-1.20;99.90
66422;DHT22;53228;51.380;0.098;2023-11-25T06:02:49;-1.10;99.90
66422;DHT22;53228;51.380;0.098;2023-11-25T06:05:17;-1.10;99.90
66422;DHT22;53228;51.380;0.098;2023-11-25T06:07:45;-1.00;99.90
66422;DHT22;53228;51.380;0.098;2023-11-25T06:10:13;-1.00;99.90
66422;DHT22;53228;51.380;0.098;2023-11-25T06:12:41;-1.00;99.90
66422;DHT22;53228;51.380;0.098;2023-11-25T06:15:09;-0.90;99.90
66422;DHT22;53228;51.380;0.098;2023-11-25T06:17:37;-0.80;99.90
66422;DHT22;53228;51.380;0.098;2023-11-25T06:20:07;-0.80;99.90
66422;DHT22;53228;51.380;0.098;2023-11-25T06:22:35;-0.50;99.90
66422;DHT22;53228;51.380;0.098;2023-11-25T06:25:03;-0.70;99.90
66422;DHT22;53228;51.380;0.098;2023-11-25T06:27:32;-0.60;99.90
66422;DHT22;53228;51.380;0.098;2023-11-25T06:30:00;-0.60;99.90
66422;DHT22;53228;51.380;0.098;2023-11-25T06:32:28;-0.60;99.90
66422;DHT22;53228;51.380;0.098;2023-11-25T06:34:56;-0.60;99.90
66422;DHT22;53228;51.380;0.098;2023-11-25T06:37:25;-0.60;99.90
66422;DHT22;53228;51.380;0.098;2023-11-25T06:39:53;-0.50;99.90
66422;DHT22;53228;51.380;0.098;2023-11-25T06:42:21;-0.50;99.90
66422;DHT22;53228;51.380;0.098;2023-11-25T06:44:49;-0.40;99.90
66422;DHT22;53228;51.380;0.098;2023-11-25T06:47:18;-0.40;99.90
66422;DHT22;53228;51.380;0.098;2023-11-25T06:49:47;-0.40;99.90
66422;DHT22;53228;51.380;0.098;2023-11-25T06:52:18;-0.30;99.90
66422;DHT22;53228;51.380;0.098;2023-11-25T06:54:46;-0.30;99.90
66422;DHT22;53228;51.380;0.098;2023-11-25T06:57:14;-0.30;99.90
66422;DHT22;53228;51.380;0.098;2023-11-25T06:59:42;-0.30;99.90
66422;DHT22;53228;51.380;0.098;2023-11-25T07:02:13;-0.40;99.90
66422;DHT22;53228;51.380;0.098;2023-11-25T07:04:42;-0.40;99.90
66422;DHT22;53228;51.380;0.098;2023-11-25T07:07:10;-0.40;99.90
66422;DHT22;53228;51.380;0.098;2023-11-25T07:09:38;-0.50;99.90
66422;DHT22;53228;51.380;0.098;2023-11-25T07:12:06;-0.60;99.90
66422;DHT22;53228;51.380;0.098;2023-11-25T07:14:36;-0.60;99.90
66422;DHT22;53228;51.380;0.098;2023-11-25T07:17:04;-0.70;99.90
66422;DHT22;53228;51.380;0.098;2023-11-25T07:19:32;-0.70;99.90
66422;DHT22;53228;51.380;0.098;2023-11-25T07:22:00;-0.70;99.90
66422;DHT22;53228;51.380;0.098;2023-11-25T07:24:28;-0.80;99.90
66422;DHT22;53228;51.380;0.098;2023-11-25T07:26:55;-0.80;99.90
66422;DHT22;53228;51.380;0.098;2023-11-25T07:29:29;-0.80;99.90
66422;DHT22;53228;51.380;0.098;2023-11-25T07:31:59;-0.80;99.90
66422;DHT22;53228;51.380;0.098;2023-11-25T07:34:29;-0.80;99.90
66422;DHT22;53228;51.380;0.098;2023-11-25T07:36:59;-0.80;99.90
66422;DHT22;53228;51.380;0.098;2023-11-25T07:39:27;-0.80;99.90
66422;DHT22;53228;51.380;0.098;2023-11-25T07:41:59;-0.80;99.90
66422;DHT22;53228;51.380;0.098;2023-11-25T07:44:28;-0.80;99.90
66422;DHT22;53228;51.380;0.098;2023-11-25T07:46:59;-1.10;99.90
66422;DHT22;53228;51.380;0.098;2023-11-25T07:49:29;-0.80;99.90
66422;DHT22;53228;51.380;0.098;2023-11-25T07:51:57;-0.80;99.90
66422;DHT22;53228;51.380;0.098;2023-11-25T07:54:25;-0.80;99.90
66422;DHT22;53228;51.380;0.098;2023-11-25T07:56:52;-0.80;99.90
66422;DHT22;53228;51.380;0.098;2023-11-25T07:59:20;-0.80;99.90
66422;DHT22;53228;51.380;0.098;2023-11-25T08:01:48;-0.70;99.90
66422;DHT22;53228;51.380;0.098;2023-11-25T08:04:16;-0.70;99.90
66422;DHT22;53228;51.380;0.098;2023-11-25T08:06:44;-0.70;99.90
66422;DHT22;53228;51.380;0.098;2023-11-25T08:09:12;-0.70;99.90
66422;DHT22;53228;51.380;0.098;2023-11-25T08:11:39;-0.80;99.90
66422;DHT22;53228;51.380;0.098;2023-11-25T08:14:07;-0.80;99.90
66422;DHT22;53228;51.380;0.098;2023-11-25T08:16:35;-0.80;99.90
66422;DHT22;53228;51.380;0.098;2023-11-25T08:19:03;-0.80;99.90
66422;DHT22;53228;51.380;0.098;2023-11-25T08:21:31;-0.90;99.90
66422;DHT22;53228;51.380;0.098;2023-11-25T08:23:59;-0.90;99.90
66422;DHT22;53228;51.380;0.098;2023-11-25T08:26:28;-0.90;99.90
66422;DHT22;53228;51.380;0.098;2023-11-25T08:28:57;-0.90;99.90
66422;DHT22;53228;51.380;0.098;2023-11-25T08:31:26;-0.80;99.90
66422;DHT22;53228;51.380;0.098;2023-11-25T08:33:54;-0.80;99.90
66422;DHT22;53228;51.380;0.098;2023-11-25T08:36:21;-0.80;99.90
66422;DHT22;53228;51.380;0.098;2023-11-25T08:38:49;-0.80;99.90
66422;DHT22;53228;51.380;0.098;2023-11-25T08:41:19;-0.70;99.90
66422;DHT22;53228;51.380;0.098;2023-11-25T08:43:47;-0.60;99.90
66422;DHT22;53228;51.380;0.098;2023-11-25T08:46:15;-0.50;99.90
66422;DHT22;53228;51.380;0.098;2023-11-25T08:48:47;-0.40;99.90
66422;DHT22;53228;51.380;0.098;2023-11-25T08:51:15;-0.30;99.90
66422;DHT22;53228;51.380;0.098;2023-11-25T08:53:43;-0.20;99.90
66422;DHT22;53228;51.380;0.098;2023-11-25T08:56:15;-0.10;99.90
66422;DHT22;53228;51.380;0.098;2023-11-25T08:58:42;-0.10;99.90
66422;DHT22;53228;51.380;0.098;2023-11-25T09:01:10;0.00;99.90
66422;DHT22;53228;51.380;0.098;2023-11-25T09:03:39;-1.80;99.90
66422;DHT22;53228;51.380;0.098;2023-11-25T09:06:07;0.10;99.90
66422;DHT22;53228;51.380;0.098;2023-11-25T09:08:34;0.20;99.90
66422;DHT22;53228;51.380;0.098;2023-11-25T09:11:03;0.20;99.90
66422;DHT22;53228;51.380;0.098;2023-11-25T09:13:30;0.30;99.90
66422;DHT22;53228;51.380;0.098;2023-11-25T09:16:00;0.60;99.90
66422;DHT22;53228;51.380;0.098;2023-11-25T09:18:28;1.10;99.90
66422;DHT22;53228;51.380;0.098;2023-11-25T09:20:56;1.40;99.90
66422;DHT22;53228;51.380;0.098;2023-11-25T09:23:24;1.70;99.90
66422;DHT22;53228;51.380;0.098;2023-11-25T09:25:52;1.90;99.90
66422;DHT22;53228;51.380;0.098;2023-11-25T09:28:20;2.10;99.90
66422;DHT22;53228;51.380;0.098;2023-11-25T09:30:48;2.30;99.90
66422;DHT22;53228;51.380;0.098;2023-11-25T09:33:15;2.60;99.90
66422;DHT22;53228;51.380;0.098;2023-11-25T09:35:43;5.40;99.90
66422;DHT22;53228;51.380;0.098;2023-11-25T09:38:11;3.00;99.90
66422;DHT22;53228;51.380;0.098;2023-11-25T09:40:38;3.20;99.90
66422;DHT22;53228;51.380;0.098;2023-11-25T09:43:06;3.20;99.90
66422;DHT22;53228;51.380;0.098;2023-11-25T09:45:34;3.20;99.90
66422;DHT22;53228;51.380;0.098;2023-11-25T09:48:02;3.30;99.90
66422;DHT22;53228;51.380;0.098;2023-11-25T09:50:30;3.40;99.90
66422;DHT22;53228;51.380;0.098;2023-11-25T09:52:59;3.70;99.90
66422;DHT22;53228;51.380;0.098;2023-11-25T09:55:32;4.10;99.90
66422;DHT22;53228;51.380;0.098;2023-11-25T09:58:05;4.40;99.90
66422;DHT22;53228;51.380;0.098;2023-11-25T10:00:36;4.70;99.90
66422;DHT22;53228;51.380;0.098;2023-11-25T10:03:08;5.10;99.90
66422;DHT22;53228;51.380;0.098;2023-11-25T10:05:38;5.50;99.90
66422;DHT22;53228;51.380;0.098;2023-11-25T10:08:06;4.30;99.90
66422;DHT22;53228;51.380;0.098;2023-11-25T10:10:34;6.10;99.90
66422;DHT22;53228;51.380;0.098;2023-11-25T10:13:02;6.50;99.90
66422;DHT22;53228;51.380;0.098;2023-11-25T10:15:30;6.80;99.90
66422;DHT22;53228;51.380;0.098;2023-11-25T10:17:58;6.90;99.90
66422;DHT22;53228;51.380;0.098;2023-11-25T10:20:27;7.20;99.90
66422;DHT22;53228;51.380;0.098;2023-11-25T10:22:55;7.30;99.90
66422;DHT22;53228;51.380;0.098;2023-11-25T10:25:26;7.30;99.90
66422;DHT22;53228;51.380;0.098;2023-11-25T10:27:56;7.40;99.90
66422;DHT22;53228;51.380;0.098;2023-11-25T10:30:24;7.30;99.90
66422;DHT22;53228;51.380;0.098;2023-11-25T10:32:52;7.30;99.90
66422;DHT22;53228;51.380;0.098;2023-11-25T10:35:24;7.20;99.90
66422;DHT22;53228;51.380;0.098;2023-11-25T10:37:52;7.10;99.90
66422;DHT22;53228;51.380;0.098;2023-11-25T10:40:20;7.20;99.90
66422;DHT22;53228;51.380;0.098;2023-11-25T10:42:50;7.20;99.90
66422;DHT22;53228;51.380;0.098;2023-11-25T10:45:21;7.10;99.90
66422;DHT22;53228;51.380;0.098;2023-11-25T10:47:50;6.90;99.90
66422;DHT22;53228;51.380;0.098;2023-11-25T10:50:18;6.60;99.90
66422;DHT22;53228;51.380;0.098;2023-11-25T10:52:46;6.40;99.90
66422;DHT22;53228;51.380;0.098;2023-11-25T10:55:18;5.40;99.90
66422;DHT22;53228;51.380;0.098;2023-11-25T10:57:46;6.70;99.90
66422;DHT22;53228;51.380;0.098;2023-11-25T11:00:14;7.30;99.90
66422;DHT22;53228;51.380;0.098;2023-11-25T11:02:48;8.00;99.90
66422;DHT22;53228;51.380;0.098;2023-11-25T11:05:45;8.80;99.90
66422;DHT22;53228;51.380;0.098;2023-11-25T11:08:22;9.30;99.90
66422;DHT22;53228;51.380;0.098;2023-11-25T11:10:56;10.10;99.90
66422;DHT22;53228;51.380;0.098;2023-11-25T11:13:33;10.80;99.90
66422;DHT22;53228;51.380;0.098;2023-11-25T11:18:52;12.50;99.90
66422;DHT22;53228;51.380;0.098;2023-11-25T11:21:29;13.70;99.90
66422;DHT22;53228;51.380;0.098;2023-11-25T11:24:00;14.20;99.90
66422;DHT22;53228;51.380;0.098;2023-11-25T11:29:41;14.80;99.90
66422;DHT22;53228;51.380;0.098;2023-11-25T11:32:13;15.10;99.90
66422;DHT22;53228;51.380;0.098;2023-11-25T11:34:41;15.30;99.90
66422;DHT22;53228;51.380;0.098;2023-11-25T11:37:09;15.40;99.90
66422;DHT22;53228;51.380;0.098;2023-11-25T11:40:00;15.40;99.90
66422;DHT22;53228;51.380;0.098;2023-11-25T11:42:28;15.30;99.90
66422;DHT22;53228;51.380;0.098;2023-11-25T11:47:40;15.20;99.90
66422;DHT22;53228;51.380;0.098;2023-11-25T11:50:08;15.10;99.90
66422;DHT22;53228;51.380;0.098;2023-11-25T11:55:49;14.80;99.90
66422;DHT22;53228;51.380;0.098;2023-11-25T11:58:22;14.70;99.90
66422;DHT22;53228;51.380;0.098;2023-11-25T12:03:30;14.50;99.90
66422;DHT22;53228;51.380;0.098;2023-11-25T12:05:59;14.30;99.90
66422;DHT22;53228;51.380;0.098;2023-11-25T12:08:27;13.90;99.90
66422;DHT22;53228;51.380;0.098;2023-11-25T12:10:57;13.20;99.90
66422;DHT22;53228;51.380;0.098;2023-11-25T12:13:31;12.40;99.90
66422;DHT22;53228;51.380;0.098;2023-11-25T12:15:59;11.40;99.90
66422;DHT22;53228;51.380;0.098;2023-11-25T12:18:29;10.60;99.90
66422;DHT22;53228;51.380;0.098;2023-11-25T12:20:58;9.90;99.90
66422;DHT22;53228;51.380;0.098;2023-11-25T12:23:29;9.20;99.90
66422;DHT22;53228;51.380;0.098;2023-11-25T12:26:20;8.60;99.90
66422;DHT22;53228;51.380;0.098;2023-11-25T12:28:49;8.20;99.90
66422;DHT22;53228;51.380;0.098;2023-11-25T12:33:44;7.50;99.90
66422;DHT22;53228;51.380;0.098;2023-11-25T12:36:12;7.40;99.90
66422;DHT22;53228;51.380;0.098;2023-11-25T12:38:40;7.20;99.90
66422;DHT22;53228;51.380;0.098;2023-11-25T12:41:08;7.10;99.90
66422;DHT22;53228;51.380;0.098;2023-11-25T12:44:03;7.00;99.90
66422;DHT22;53228;51.380;0.098;2023-11-25T12:46:33;6.80;99.90
66422;DHT22;53228;51.380;0.098;2023-11-25T12:49:23;6.70;99.90
66422;DHT22;53228;51.380;0.098;2023-11-25T12:51:52;6.60;99.90
66422;DHT22;53228;51.380;0.098;2023-11-25T12:54:21;6.60;99.90
66422;DHT22;53228;51.380;0.098;2023-11-25T12:56:53;6.40;99.90
66422;DHT22;53228;51.380;0.098;2023-11-25T12:59:28;6.50;99.90
66422;DHT22;53228;51.380;0.098;2023-11-25T13:02:10;6.50;99.90
66422;DHT22;53228;51.380;0.098;2023-11-25T13:04:43;6.40;99.90
66422;DHT22;53228;51.380;0.098;2023-11-25T13:07:34;6.10;99.90
66422;DHT22;53228;51.380;0.098;2023-11-25T13:10:02;6.30;99.90
66422;DHT22;53228;51.380;0.098;2023-11-25T13:15:00;6.00;99.90
66422;DHT22;53228;51.380;0.098;2023-11-25T13:17:30;6.10;99.90
66422;DHT22;53228;51.380;0.098;2023-11-25T13:19:58;6.00;99.90
66422;DHT22;53228;51.380;0.098;2023-11-25T13:22:26;5.90;99.90
66422;DHT22;53228;51.380;0.098;2023-11-25T13:24:53;5.80;99.90
66422;DHT22;53228;51.380;0.098;2023-11-25T13:29:49;5.70;99.90
66422;DHT22;53228;51.380;0.098;2023-11-25T13:32:17;5.70;99.90
66422;DHT22;53228;51.380;0.098;2023-11-25T13:34:45;5.60;99.90
66422;DHT22;53228;51.380;0.098;2023-11-25T13:37:12;5.60;99.90
66422;DHT22;53228;51.380;0.098;2023-11-25T13:39:40;5.60;99.90
66422;DHT22;53228;51.380;0.098;2023-11-25T13:42:08;5.50;99.90
66422;DHT22;53228;51.380;0.098;2023-11-25T13:44:38;5.50;99.90
66422;DHT22;53228;51.380;0.098;2023-11-25T13:47:06;5.50;99.90
66422;DHT22;53228;51.380;0.098;2023-11-25T13:49:34;5.40;99.90
66422;DHT22;53228;51.380;0.098;2023-11-25T13:52:02;5.30;99.90
66422;DHT22;53228;51.380;0.098;2023-11-25T13:54:30;5.10;99.90
66422;DHT22;53228;51.380;0.098;2023-11-25T13:56:58;5.30;99.90
66422;DHT22;53228;51.380;0.098;2023-11-25T13:59:26;5.40;99.90
66422;DHT22;53228;51.380;0.098;2023-11-25T14:04:22;5.20;99.90
66422;DHT22;53228;51.380;0.098;2023-11-25T14:09:22;5.10;99.90
66422;DHT22;53228;51.380;0.098;2023-11-25T14:11:51;4.90;99.90
66422;DHT22;53228;51.380;0.098;2023-11-25T14:14:18;5.20;99.90
66422;DHT22;53228;51.380;0.098;2023-11-25T14:16:47;4.80;99.90
66422;DHT22;53228;51.380;0.098;2023-11-25T14:19:16;4.70;99.90
66422;DHT22;53228;51.380;0.098;2023-11-25T14:24:13;4.50;99.90
66422;DHT22;53228;51.380;0.098;2023-11-25T14:26:41;4.70;99.90
66422;DHT22;53228;51.380;0.098;2023-11-25T14:29:08;4.80;99.90
66422;DHT22;53228;51.380;0.098;2023-11-25T14:34:04;4.60;99.90
66422;DHT22;53228;51.380;0.098;2023-11-25T14:36:32;4.50;99.90
66422;DHT22;53228;51.380;0.098;2023-11-25T14:41:28;4.50;99.90
66422;DHT22;53228;51.380;0.098;2023-11-25T14:43:55;4.50;99.90
66422;DHT22;53228;51.380;0.098;2023-11-25T14:46:23;4.30;99.90
66422;DHT22;53228;51.380;0.098;2023-11-25T14:48:51;4.20;99.90
66422;DHT22;53228;51.380;0.098;2023-11-25T14:51:19;4.20;99.90
66422;DHT22;53228;51.380;0.098;2023-11-25T14:53:48;4.20;99.90
66422;DHT22;53228;51.380;0.098;2023-11-25T14:56:17;4.30;99.90
66422;DHT22;53228;51.380;0.098;2023-11-25T14:58:45;4.10;99.90
66422;DHT22;53228;51.380;0.098;2023-11-25T15:03:41;4.10;99.90
66422;DHT22;53228;51.380;0.098;2023-11-25T15:08:38;4.10;99.90
66422;DHT22;53228;51.380;0.098;2023-11-25T15:11:06;4.10;99.90
66422;DHT22;53228;51.380;0.098;2023-11-25T15:13:34;3.70;99.90
66422;DHT22;53228;51.380;0.098;2023-11-25T15:18:31;4.40;99.90
66422;DHT22;53228;51.380;0.098;2023-11-25T15:20:59;3.60;99.90
66422;DHT22;53228;51.380;0.098;2023-11-25T15:25:57;3.10;99.90
66422;DHT22;53228;51.380;0.098;2023-11-25T15:28:25;3.40;99.90
66422;DHT22;53228;51.380;0.098;2023-11-25T15:35:50;3.50;99.90
66422;DHT22;53228;51.380;0.098;2023-11-25T15:38:17;3.50;99.90
66422;DHT22;53228;51.380;0.098;2023-11-25T15:40:45;2.30;99.90
66422;DHT22;53228;51.380;0.098;2023-11-25T15:43:13;2.60;99.90
66422;DHT22;53228;51.380;0.098;2023-11-25T15:45:42;2.70;99.90
66422;DHT22;53228;51.380;0.098;2023-11-25T15:48:09;2.50;99.90
66422;DHT22;53228;51.380;0.098;2023-11-25T15:50:37;2.40;99.90
66422;DHT22;53228;51.380;0.098;2023-11-25T15:53:08;2.80;99.90
66422;DHT22;53228;51.380;0.098;2023-11-25T15:55:36;2.70;99.90
66422;DHT22;53228;51.380;0.098;2023-11-25T16:00:32;2.70;99.90
66422;DHT22;53228;51.380;0.098;2023-11-25T16:02:59;2.60;99.90
66422;DHT22;53228;51.380;0.098;2023-11-25T16:05:27;3.20;99.90
66422;DHT22;53228;51.380;0.098;2023-11-25T16:07:55;3.00;99.90
66422;DHT22;53228;51.380;0.098;2023-11-25T16:10:23;2.40;99.90
66422;DHT22;53228;51.380;0.098;2023-11-25T16:12:52;2.30;99.90
66422;DHT22;53228;51.380;0.098;2023-11-25T16:15:20;2.30;99.90
66422;DHT22;53228;51.380;0.098;2023-11-25T16:17:47;2.20;99.90
66422;DHT22;53228;51.380;0.098;2023-11-25T16:20:16;2.10;99.90
66422;DHT22;53228;51.380;0.098;2023-11-25T16:22:46;2.10;99.90
66422;DHT22;53228;51.380;0.098;2023-11-25T16:25:13;2.00;99.90
66422;DHT22;53228;51.380;0.098;2023-11-25T16:27:41;1.90;99.90
66422;DHT22;53228;51.380;0.098;2023-11-25T16:30:09;2.00;99.90
66422;DHT22;53228;51.380;0.098;2023-11-25T16:32:41;1.90;99.90
66422;DHT22;53228;51.380;0.098;2023-11-25T16:35:10;1.80;99.90
66422;DHT22;53228;51.380;0.098;2023-11-25T16:37:43;1.90;99.90
66422;DHT22;53228;51.380;0.098;2023-11-25T16:40:12;1.70;99.90
66422;DHT22;53228;51.380;0.098;2023-11-25T16:42:40;1.70;99.90
66422;DHT22;53228;51.380;0.098;2023-11-25T16:45:08;1.60;99.90
66422;DHT22;53228;51.380;0.098;2023-11-25T16:47:36;1.60;99.90
66422;DHT22;53228;51.380;0.098;2023-11-25T16:50:05;1.50;99.90
66422;DHT22;53228;51.380;0.098;2023-11-25T16:52:35;1.50;99.90
66422;DHT22;53228;51.380;0.098;2023-11-25T16:55:03;1.40;99.90
66422;DHT22;53228;51.380;0.098;2023-11-25T16:57:31;1.40;99.90
66422;DHT22;53228;51.380;0.098;2023-11-25T16:59:59;1.20;99.90
66422;DHT22;53228;51.380;0.098;2023-11-25T17:02:26;1.20;99.90
66422;DHT22;53228;51.380;0.098;2023-11-25T17:04:56;1.20;99.90
66422;DHT22;53228;51.380;0.098;2023-11-25T17:22:11;1.10;99.90
66422;DHT22;53228;51.380;0.098;2023-11-25T17:24:39;0.90;99.90
66422;DHT22;53228;51.380;0.098;2023-11-25T17:27:09;0.90;99.90
66422;DHT22;53228;51.380;0.098;2023-11-25T17:29:37;0.80;99.90
66422;DHT22;53228;51.380;0.098;2023-11-25T17:32:04;0.80;99.90
66422;DHT22;53228;51.380;0.098;2023-11-25T17:34:33;0.80;99.90
66422;DHT22;53228;51.380;0.098;2023-11-25T17:37:01;0.80;99.90
66422;DHT22;53228;51.380;0.098;2023-11-25T17:39:29;0.70;99.90
66422;DHT22;53228;51.380;0.098;2023-11-25T17:41:57;0.70;99.90
66422;DHT22;53228;51.380;0.098;2023-11-25T17:44:26;0.70;99.90
66422;DHT22;53228;51.380;0.098;2023-11-25T17:46:54;0.70;99.90
66422;DHT22;53228;51.380;0.098;2023-11-25T17:49:22;0.60;99.90
66422;DHT22;53228;51.380;0.098;2023-11-25T17:51:49;0.60;99.90
66422;DHT22;53228;51.380;0.098;2023-11-25T17:54:17;0.60;99.90
66422;DHT22;53228;51.380;0.098;2023-11-25T17:56:45;0.60;99.90
66422;DHT22;53228;51.380;0.098;2023-11-25T17:59:13;0.50;99.90
66422;DHT22;53228;51.380;0.098;2023-11-25T18:01:41;0.50;99.90
66422;DHT22;53228;51.380;0.098;2023-11-25T18:04:08;0.50;99.90
66422;DHT22;53228;51.380;0.098;2023-11-25T18:06:36;0.50;99.90
66422;DHT22;53228;51.380;0.098;2023-11-25T18:09:04;0.40;99.90
66422;DHT22;53228;51.380;0.098;2023-11-25T18:11:32;0.40;99.90
66422;DHT22;53228;51.380;0.098;2023-11-25T18:14:00;0.40;99.90
66422;DHT22;53228;51.380;0.098;2023-11-25T18:16:27;0.40;99.90
66422;DHT22;53228;51.380;0.098;2023-11-25T18:18:55;0.40;99.90
66422;DHT22;53228;51.380;0.098;2023-11-25T18:21:25;0.40;99.90
66422;DHT22;53228;51.380;0.098;2023-11-25T18:23:53;0.40;99.90
66422;DHT22;53228;51.380;0.098;2023-11-25T18:26:21;0.40;99.90
66422;DHT22;53228;51.380;0.098;2023-11-25T18:28:49;0.40;99.90
66422;DHT22;53228;51.380;0.098;2023-11-25T18:31:16;0.40;99.90
66422;DHT22;53228;51.380;0.098;2023-11-25T18:33:45;0.40;99.90
66422;DHT22;53228;51.380;0.098;2023-11-25T18:36:13;0.40;99.90
66422;DHT22;53228;51.380;0.098;2023-11-25T18:38:41;0.40;99.90
66422;DHT22;53228;51.380;0.098;2023-11-25T18:41:08;0.40;99.90
66422;DHT22;53228;51.380;0.098;2023-11-25T18:43:36;0.40;99.90
66422;DHT22;53228;51.380;0.098;2023-11-25T18:46:04;0.40;99.90
66422;DHT22;53228;51.380;0.098;2023-11-25T18:48:33;0.50;99.90
66422;DHT22;53228;51.380;0.098;2023-11-25T18:51:04;0.40;99.90
66422;DHT22;53228;51.380;0.098;2023-11-25T18:53:33;0.50;99.90
66422;DHT22;53228;51.380;0.098;2023-11-25T18:56:02;0.50;99.90
66422;DHT22;53228;51.380;0.098;2023-11-25T19:02:12;0.50;99.90
66422;DHT22;53228;51.380;0.098;2023-11-25T19:04:40;0.50;99.90
66422;DHT22;53228;51.380;0.098;2023-11-25T19:07:08;0.50;99.90
66422;DHT22;53228;51.380;0.098;2023-11-25T19:09:36;0.50;99.90
66422;DHT22;53228;51.380;0.098;2023-11-25T19:12:03;0.50;99.90
66422;DHT22;53228;51.380;0.098;2023-11-25T19:14:31;0.50;99.90